首页
METAR-TAF:

METAR-TAF

机场 :

西沃萨古尔·拉姆古兰爵士国际机场

毛里求斯, 毛里求斯

纬度: 20-26S, 经度: 057-40E, 海拔: 55米

当前天气观测

该预报发布于35分钟前的18:00 UTC
风速14节,风向东转东南
温度 23°C
湿度 69%
气压 1025 hPa
能见度10公里或以上
多云层高于1500英尺

METAR: FIMP 171800Z 11014KT 9999 BKN015 23/17 Q1025

时间: 22:35 (18:35 UTC)

预报

该预报发布于1小时和15分钟前的17:20 UTC
预报有效从17日的 18点(UTC)到 19日的 00点(UTC)
风速15节,风向东转东南,有时为25节阵风
能见度10公里或以上
散云层高于1600英尺
几率 30% :
短暂存在
从 17日的 20点(UTC)到 18日的 04点(UTC)
能見度: 7000
少量云层高于1000英尺
多云层高于1500英尺
多云层高于5000英尺
小阵雨

TAF: FIMP 171720Z 1718/1900 12015G25KT 9999 SCT016 PROB30 TEMPO 1720/1804 7000 -SHRA FEW010 BKN015 BKN050

超过4000个机场的气象观测和天气预报(METAR&TAF报告)。

可查询的气象台以黄色和红色小点在地图上表示。

将鼠标移到小点上方,可查看气象台名称。

然后点击查看天气观测和预报。

如需切换地图:点击带黑十字的绿色按钮放大地图;点击带横线的绿色按钮缩小地图;或者点击绿色箭头查看邻近地区的地图。


METAR-TAF: